Accueil
METAR-TAF:

METAR-TAF

Aéroports :

Aéroport de Reykjavik

Reykjavík, Islande

latitude: 64-08N, longitude: 021-54W, altitude: 54 m

Observation

Le bulletin a été fait il y a 59 minutes, à 22:00 UTC
Vent 8 kt de est
Température 5°C
Humidité 81%
Pression 997 hPa
Visibilité 10 km ou plus
Quelques nuages à une hauteur de 3800 ft
Nuages fragmentés à une hauteur de 6400 ft

METAR: BIRK 122200Z 08008KT 9999 FEW038 BKN064 05/02 Q0997

Heure: 22:59 (22:59 UTC)

Prévision

Le bulletin a été fait il y a 3 heures et 8 minutes, à 19:51 UTC
Prévision valable du 12 à 21 UTC au 13 à 21 UTC
Vent 5 kt de est
Visibilité 10 km ou plus
Quelques nuages à une hauteur de 2500 ft
Nuages épars à une hauteur de 4500 ft

TAF: BIRK 121951Z 1221/1321 09005KT 9999 FEW025 SCT045 TX03/1315Z TNM01/1309Z

Observations et prévisions météorologiques de plus de 4000 aéroports (messages METAR et TAF).

Les stations disponibles sont représentées par des disques jaunes et rouges sur la carte.

Passer la souris dessus pour voir le nom de la station.

Cliquer dessus pour voir les observations et prévisions météorologiques.

Pour changer de carte: cliquez sur les boutons verts avec une croix noire pour zoomer, sur le bouton vert avec un tiret pour effectuer un zoom arrière, ou sur les flèches vertes pour les cartes adjacentes.


METAR-TAF: